Time;durP1;ratioP1;P1;durP2;ratioP2;P2;SDS_P1;SDS_P2;PMS_P1;PMS_P2;Temp;Humidity;BMP_temperature;BMP_pressure;BME280_temperature;BME280_humidity;BME280_pressure;Samples;Min_cycle;Max_cycle;Signal;HPM_P1;HPM_P2
2022/12/30 00:01:59;;;;;;;33.30;30.40;;;;;;;21.72;35.45;95813.06;6209479;28;103351;-69
2022/12/30 00:05:03;;;;;;;32.13;29.23;;;;;;;21.72;36.00;95818.41;6201766;28;103067;-69
2022/12/30 00:08:45;;;;;;;31.63;28.77;;;;;;;21.71;35.45;95814.94;6203205;28;104756;-69
2022/12/30 00:11:33;;;;;;;31.83;29.03;;;;;;;21.72;35.52;95811.22;6208854;28;103286;-69
2022/12/30 00:34:45;;;;;;;31.63;28.83;;;;;;;21.71;35.80;95838.13;6196087;28;103095;-70
2022/12/30 00:37:48;;;;;;;30.60;27.90;;;;;;;21.70;35.92;95829.34;6207309;28;103306;-69
2022/12/30 00:44:16;;;;;;;29.80;27.20;;;;;;;21.71;35.80;95838.94;6208816;28;104279;-69
2022/12/30 00:47:19;;;;;;;28.57;25.97;;;;;;;21.65;35.33;95823.25;6209082;28;103062;-69
2022/12/30 00:57:03;;;;;;;30.87;27.97;;;;;;;21.69;35.61;95829.63;6208852;28;103097;-69
2022/12/30 01:00:10;;;;;;;30.93;27.97;;;;;;;21.69;35.91;95834.97;6200456;28;103272;-69
2022/12/30 01:03:13;;;;;;;30.40;27.67;;;;;;;21.57;35.39;95806.03;6198643;28;103903;-69
2022/12/30 01:06:17;;;;;;;28.63;26.13;;;;;;;21.69;35.58;95835.75;6208528;28;103362;-69
2022/12/30 01:09:20;;;;;;;28.93;26.33;;;;;;;21.68;35.67;95836.03;6207975;28;103217;-69
2022/12/30 01:12:23;;;;;;;29.73;27.10;;;;;;;21.59;35.38;95816.41;6207596;28;103305;-69
2022/12/30 01:15:27;;;;;;;29.80;27.30;;;;;;;21.68;35.42;95833.38;6197553;28;103297;-69
2022/12/30 01:18:30;;;;;;;30.03;27.40;;;;;;;21.66;35.30;95830.97;6208040;28;102813;-68
2022/12/30 01:21:34;;;;;;;30.33;27.67;;;;;;;21.69;35.87;95834.97;6208096;28;103077;-69
2022/12/30 01:24:38;;;;;;;30.67;28.10;;;;;;;21.67;35.57;95831.75;6198967;28;102829;-69
2022/12/30 01:27:41;;;;;;;30.60;27.90;;;;;;;21.68;35.71;95825.38;6193209;28;103079;-69
2022/12/30 01:30:45;;;;;;;30.50;27.90;;;;;;;21.66;35.46;95822.19;6208064;28;103245;-70
2022/12/30 01:33:48;;;;;;;30.93;28.17;;;;;;;21.66;35.68;95817.66;6208386;28;103172;-69
2022/12/30 01:36:51;;;;;;;29.60;27.10;;;;;;;21.67;35.60;95816.56;6196691;28;103065;-68
2022/12/30 01:39:54;;;;;;;30.07;27.30;;;;;;;21.66;35.67;95816.84;6208300;28;102942;-71
2022/12/30 01:42:57;;;;;;;30.20;27.60;;;;;;;21.68;35.15;95801.41;6208544;28;102935;-69
2022/12/30 01:46:06;;;;;;;30.37;27.57;;;;;;;21.67;35.68;95799.78;6208375;28;103333;-69
2022/12/30 01:49:09;;;;;;;29.13;26.63;;;;;;;21.67;35.36;95797.13;6196488;28;103304;-68
2022/12/30 01:52:15;;;;;;;29.00;26.60;;;;;;;21.57;35.51;95784.75;6208277;28;103332;-69
2022/12/30 01:55:25;;;;;;;30.27;27.57;;;;;;;21.66;35.71;95814.97;6207718;28;102783;-69
2022/12/30 01:58:32;;;;;;;28.83;26.33;;;;;;;21.66;35.70;95811.53;6203165;28;104499;-69
2022/12/30 02:01:37;;;;;;;29.73;27.13;;;;;;;21.65;35.33;95807.28;6205317;28;103312;-70
2022/12/30 02:04:40;;;;;;;30.03;27.53;;;;;;;21.66;35.71;95808.88;6207210;28;103059;-70
2022/12/30 02:07:48;;;;;;;30.70;28.10;;;;;;;21.65;35.26;95796.63;6196494;28;103044;-69
2022/12/30 02:10:54;;;;;;;29.40;26.90;;;;;;;21.58;35.88;95785.53;6196622;28;103451;-69
2022/12/30 02:13:58;;;;;;;30.37;27.67;;;;;;;21.60;36.07;95789.50;6207909;28;103208;-69
2022/12/30 02:17:13;;;;;;;28.50;26.20;;;;;;;21.65;35.75;95815.28;6207690;28;103486;-69
2022/12/30 02:20:48;;;;;;;28.17;25.77;;;;;;;21.64;35.47;95811.03;6207272;28;103199;-69
2022/12/30 02:24:19;;;;;;;28.83;26.23;;;;;;;21.64;35.15;95797.69;6201329;28;103064;-69
2022/12/30 02:27:43;;;;;;;28.23;25.73;;;;;;;21.63;35.47;95804.91;6203676;28;103240;-69
2022/12/30 02:31:15;;;;;;;27.87;25.47;;;;;;;21.64;35.28;95800.38;6208007;28;103058;-70
2022/12/30 02:34:29;;;;;;;26.53;24.33;;;;;;;21.64;35.51;95806.50;6190345;28;103240;-69
2022/12/30 02:37:37;;;;;;;25.23;23.13;;;;;;;21.56;34.99;95787.69;6206314;28;103225;-69
2022/12/30 02:47:40;;;;;;;25.90;23.70;;;;;;;21.62;35.64;95798.00;6209680;28;103044;-69
2022/12/30 02:54:05;;;;;;;25.07;22.97;;;;;;;21.62;35.10;95790.00;6210641;28;103310;-69
2022/12/30 02:57:24;;;;;;;24.60;22.40;;;;;;;21.63;35.21;95793.47;6196072;28;103522;-69
2022/12/30 03:04:11;;;;;;;23.60;21.67;;;;;;;21.63;35.26;95794.25;6210785;28;103170;-69
2022/12/30 03:07:24;;;;;;;24.90;22.80;;;;;;;21.64;35.18;95792.38;6192972;28;103441;-70
2022/12/30 03:14:01;;;;;;;23.60;21.60;;;;;;;21.64;35.02;95789.72;6211070;28;103386;-70
2022/12/30 03:17:10;;;;;;;23.03;21.13;;;;;;;21.62;35.09;95792.66;6209731;28;103626;-72
2022/12/30 03:20:18;;;;;;;23.57;21.47;;;;;;;21.62;35.45;95786.53;6201017;28;102818;-71
2022/12/30 03:27:04;;;;;;;21.33;19.53;;;;;;;21.61;35.01;95790.28;6209495;28;103009;-70
2022/12/30 03:30:09;;;;;;;22.00;20.10;;;;;;;21.61;35.24;95792.94;6198242;28;103273;-70
2022/12/30 03:33:13;;;;;;;22.50;20.60;;;;;;;21.60;35.38;95799.34;6210275;28;103092;-70
2022/12/30 03:36:22;;;;;;;21.03;19.33;;;;;;;21.61;34.96;95807.06;6210650;28;103228;-72
2022/12/30 03:39:30;;;;;;;21.17;19.47;;;;;;;21.60;35.28;95797.47;6203660;28;103298;-72
2022/12/30 03:42:34;;;;;;;20.87;19.00;;;;;;;21.33;35.20;95765.28;6200627;28;103842;-71
2022/12/30 03:45:37;;;;;;;19.93;18.23;;;;;;;21.59;35.25;95809.22;6210238;28;103044;-72
2022/12/30 03:48:40;;;;;;;21.57;19.73;;;;;;;21.56;35.28;95803.66;6210364;28;102726;-72
2022/12/30 03:51:45;;;;;;;19.83;18.23;;;;;;;21.50;34.92;95801.03;6205836;28;103148;-72
2022/12/30 03:54:48;;;;;;;19.53;17.83;;;;;;;21.47;34.97;95798.94;6203671;28;103428;-72
2022/12/30 03:57:51;;;;;;;18.30;16.80;;;;;;;21.59;35.06;95821.75;6209795;28;103683;-72
2022/12/30 04:00:54;;;;;;;19.00;17.40;;;;;;;21.58;35.25;95817.50;6209538;28;103183;-70
2022/12/30 04:03:57;;;;;;;19.87;18.07;;;;;;;21.58;35.01;95828.94;6197145;28;103399;-70
2022/12/30 04:07:02;;;;;;;18.80;17.10;;;;;;;21.58;35.13;95830.81;6211023;28;103196;-70
2022/12/30 04:10:07;;;;;;;18.87;17.27;;;;;;;21.60;35.17;95831.31;6209604;28;103057;-70
2022/12/30 04:13:10;;;;;;;16.90;15.50;;;;;;;21.59;35.13;95830.53;6208927;28;103252;-70
2022/12/30 04:16:13;;;;;;;19.40;17.70;;;;;;;21.60;34.65;95840.09;6198156;28;103793;-70
2022/12/30 04:19:16;;;;;;;17.87;16.33;;;;;;;21.58;35.05;95836.94;6209765;28;103171;-69
2022/12/30 04:22:21;;;;;;;17.43;16.03;;;;;;;21.55;34.95;95836.72;6209044;28;105973;-69
2022/12/30 04:25:24;;;;;;;17.07;15.57;;;;;;;21.57;34.91;95842.53;6204882;28;103687;-69
2022/12/30 04:28:27;;;;;;;17.77;16.33;;;;;;;21.56;35.06;95836.41;6198950;28;103310;-71
2022/12/30 04:31:30;;;;;;;24.17;22.17;;;;;;;21.57;35.68;95846.00;6209770;28;102854;-71
2022/12/30 04:34:33;;;;;;;19.10;17.20;;;;;;;21.59;35.01;95843.84;6209674;28;103383;-68
2022/12/30 04:37:37;;;;;;;18.87;17.20;;;;;;;21.59;35.35;95843.84;6203611;28;102811;-67
2022/12/30 04:40:40;;;;;;;16.50;15.20;;;;;;;21.41;34.80;95818.72;6207937;28;103230;-69
2022/12/30 04:43:43;;;;;;;18.00;16.50;;;;;;;21.57;34.95;95842.53;6209350;28;103839;-69
2022/12/30 04:46:47;;;;;;;17.47;15.97;;;;;;;21.60;34.63;95849.97;6209105;28;103358;-69
2022/12/30 04:49:50;;;;;;;16.53;15.23;;;;;;;21.57;34.73;95848.66;6199017;28;103506;-69
2022/12/30 04:52:54;;;;;;;16.50;15.20;;;;;;;21.52;34.96;95844.19;6209233;28;103000;-69
2022/12/30 04:55:57;;;;;;;16.80;15.43;;;;;;;21.46;34.60;95825.88;6206472;28;103052;-68
2022/12/30 04:59:00;;;;;;;16.60;15.20;;;;;;;21.52;34.99;95840.72;6205379;28;103253;-69
2022/12/30 05:02:03;;;;;;;16.47;15.07;;;;;;;21.50;34.91;95853.50;6198295;28;103887;-69
2022/12/30 05:05:08;;;;;;;15.77;14.50;;;;;;;21.55;34.90;95863.34;6207899;28;103114;-69
2022/12/30 05:08:12;;;;;;;16.57;15.13;;;;;;;21.54;35.17;95864.41;6209664;28;106274;-70
2022/12/30 05:11:15;;;;;;;16.10;14.60;;;;;;;21.55;34.82;95869.47;6205883;28;103107;-68
2022/12/30 05:14:18;;;;;;;16.43;15.03;;;;;;;21.54;35.52;95859.09;6194717;28;103496;-70
2022/12/30 05:17:21;;;;;;;15.87;14.37;;;;;;;21.66;34.72;95862.13;6205669;28;103301;-70
2022/12/30 05:20:24;;;;;;;16.43;14.93;;;;;;;21.66;35.70;95872.78;6204699;28;103535;-70
2022/12/30 05:26:49;;;;;;;16.73;15.03;;;;;;;21.74;36.07;95872.19;6208028;28;103063;-68
2022/12/30 05:29:52;;;;;;;15.30;14.00;;;;;;;21.76;35.86;95873.50;6198923;28;103275;-68
2022/12/30 05:32:56;;;;;;;16.73;15.03;;;;;;;21.74;36.58;95866.88;6205366;28;103380;-68
2022/12/30 05:35:59;;;;;;;16.33;14.63;;;;;;;21.78;36.60;95881.19;6184872;28;105162;-65
2022/12/30 05:39:03;;;;;;;15.10;13.60;;;;;;;21.78;36.68;95882.00;6206452;28;103076;-66
2022/12/30 05:42:07;;;;;;;16.27;14.87;;;;;;;21.76;36.63;95878.81;6208497;28;104913;-65
2022/12/30 05:45:11;;;;;;;15.10;13.80;;;;;;;21.72;36.25;95882.34;6192117;28;103771;-65
2022/12/30 05:48:15;;;;;;;14.33;13.03;;;;;;;21.65;35.94;95887.19;6173728;28;103319;-65
2022/12/30 05:51:18;;;;;;;14.77;13.47;;;;;;;21.62;35.46;95890.41;6184313;28;103699;-66
2022/12/30 05:54:23;;;;;;;15.00;13.80;;;;;;;21.61;35.58;95886.97;6183220;28;106281;-65
2022/12/30 05:57:26;;;;;;;13.67;12.50;;;;;;;21.60;35.39;95888.03;6179602;28;103604;-65
2022/12/30 06:00:29;;;;;;;15.70;14.40;;;;;;;21.58;35.26;95876.88;6177900;28;105776;-68
2022/12/30 06:03:32;;;;;;;14.70;13.50;;;;;;;21.58;35.65;95892.06;6182277;28;103124;-65
2022/12/30 06:06:36;;;;;;;14.10;12.83;;;;;;;21.57;35.27;95896.59;6182262;28;103169;-65
2022/12/30 06:09:40;;;;;;;13.83;12.40;;;;;;;21.57;35.18;95890.47;6172655;28;103394;-67
2022/12/30 06:12:43;;;;;;;14.77;13.57;;;;;;;21.57;35.09;95895.81;6183519;28;103109;-64
2022/12/30 06:15:47;;;;;;;15.73;14.23;;;;;;;21.54;35.38;95897.16;6183765;28;103190;-67
2022/12/30 06:18:50;;;;;;;15.67;14.30;;;;;;;21.55;35.34;95897.97;6188460;28;105669;-67
2022/12/30 06:21:53;;;;;;;15.03;13.73;;;;;;;21.47;35.06;95889.47;6177993;28;104292;-67
2022/12/30 06:24:57;;;;;;;18.73;17.20;;;;;;;21.54;35.37;95901.69;6187945;28;103152;-68
2022/12/30 06:28:00;;;;;;;14.93;13.70;;;;;;;21.55;34.99;95912.06;6188574;28;103706;-66
2022/12/30 06:31:03;;;;;;;14.73;13.53;;;;;;;21.38;34.78;95890.38;6184311;28;103315;-66
2022/12/30 06:34:06;;;;;;;15.47;14.20;;;;;;;21.52;34.98;95916.09;6180852;28;103370;-67
2022/12/30 06:37:10;;;;;;;16.47;15.17;;;;;;;21.55;34.67;95919.25;6187707;28;103227;-67
2022/12/30 06:40:14;;;;;;;16.97;15.50;;;;;;;21.52;35.01;95910.75;6188052;28;103072;-67
2022/12/30 06:43:17;;;;;;;16.33;14.97;;;;;;;21.54;34.69;95915.81;6178634;28;102996;-67
2022/12/30 06:46:20;;;;;;;17.93;16.37;;;;;;;21.55;34.82;95917.41;6187438;28;103389;-67
2022/12/30 06:49:24;;;;;;;19.20;17.60;;;;;;;21.54;34.96;95920.34;6187667;28;103162;-67
2022/12/30 06:52:27;;;;;;;19.67;18.03;;;;;;;21.55;35.22;95924.59;6186933;28;103428;-68
2022/12/30 06:55:31;;;;;;;18.80;17.30;;;;;;;21.55;35.25;95929.91;6176779;28;103384;-67
2022/12/30 06:58:37;;;;;;;18.97;17.37;;;;;;;21.55;35.23;95925.38;6188022;28;103175;-66
2022/12/30 07:01:40;;;;;;;18.30;16.80;;;;;;;21.51;35.00;95922.50;6187602;28;103461;-67
2022/12/30 07:04:43;;;;;;;20.17;18.50;;;;;;;21.55;35.03;95930.72;6187643;28;102956;-67
2022/12/30 07:07:46;;;;;;;21.10;19.40;;;;;;;21.59;35.21;95937.06;6176018;28;103673;-67
2022/12/30 07:10:50;;;;;;;20.40;18.43;;;;;;;21.58;34.93;95934.69;6188000;28;102913;-68
2022/12/30 07:13:54;;;;;;;19.70;18.07;;;;;;;21.61;34.84;95944.75;6187272;28;103057;-67
2022/12/30 07:16:57;;;;;;;19.77;18.07;;;;;;;21.55;34.84;95935.25;6181252;28;106286;-68
2022/12/30 07:20:00;;;;;;;19.67;18.10;;;;;;;21.68;34.56;95934.59;6182091;28;103332;-67
2022/12/30 07:23:03;;;;;;;21.50;19.67;;;;;;;21.67;34.95;95944.44;6186719;28;106399;-68
2022/12/30 07:26:07;;;;;;;19.17;17.67;;;;;;;21.85;34.48;95940.31;6187371;28;103060;-66
2022/12/30 07:29:12;;;;;;;20.57;18.87;;;;;;;21.80;34.47;95943.78;6176058;28;104321;-66
2022/12/30 07:32:15;;;;;;;19.87;18.27;;;;;;;21.78;34.65;95942.47;6186285;28;103584;-66
2022/12/30 07:35:18;;;;;;;21.03;19.30;;;;;;;21.85;34.08;95935.00;6187051;28;103257;-66
2022/12/30 07:38:21;;;;;;;21.83;19.93;;;;;;;21.86;34.49;95941.91;6185819;28;103372;-66
2022/12/30 07:41:26;;;;;;;22.43;20.43;;;;;;;21.91;34.48;95938.38;6176746;28;103115;-66
2022/12/30 07:44:29;;;;;;;22.10;20.30;;;;;;;21.84;34.23;95932.59;6186123;28;103051;-66
2022/12/30 07:47:34;;;;;;;22.47;20.60;;;;;;;21.96;34.39;95939.13;6187216;28;105628;-67
2022/12/30 07:50:39;;;;;;;22.10;20.27;;;;;;;21.98;34.03;95939.63;6182901;28;104457;-70
2022/12/30 07:53:43;;;;;;;21.77;20.00;;;;;;;21.95;34.63;95950.84;6179658;28;103164;-67
2022/12/30 07:56:47;;;;;;;21.90;20.00;;;;;;;21.95;34.17;95929.53;6186763;28;102934;-66
2022/12/30 07:59:51;;;;;;;23.43;21.37;;;;;;;22.03;34.45;95942.25;6186079;28;103318;-67
2022/12/30 08:02:54;;;;;;;22.00;20.10;;;;;;;22.04;34.19;95938.53;6175550;28;104114;-69
2022/12/30 08:05:57;;;;;;;22.90;20.90;;;;;;;22.09;34.30;95940.31;6186271;28;104156;-64
2022/12/30 08:09:03;;;;;;;21.57;19.77;;;;;;;22.06;34.30;95931.03;6185834;28;103251;-64
2022/12/30 08:12:08;;;;;;;20.93;19.23;;;;;;;22.07;34.82;95942.47;6185927;28;103397;-64
2022/12/30 08:15:12;;;;;;;21.90;19.97;;;;;;;22.07;35.32;95929.16;6176342;28;104321;-65
2022/12/30 08:18:15;;;;;;;21.00;19.30;;;;;;;22.08;34.35;95936.88;6185083;28;103106;-66
2022/12/30 08:21:18;;;;;;;21.27;19.57;;;;;;;22.08;34.55;95938.75;6184955;28;103273;-67
2022/12/30 08:24:21;;;;;;;20.20;18.50;;;;;;;22.06;34.63;95939.03;6185617;28;103160;-66
2022/12/30 08:27:26;;;;;;;20.60;18.73;;;;;;;22.06;35.08;95938.22;6175074;28;104561;-66
2022/12/30 08:30:29;;;;;;;19.77;18.10;;;;;;;22.05;34.86;95940.09;6185781;28;104224;-66
2022/12/30 08:33:32;;;;;;;20.10;18.40;;;;;;;21.96;34.81;95931.13;6185542;28;103100;-67
2022/12/30 08:36:35;;;;;;;19.97;18.27;;;;;;;22.04;34.63;95943.84;6179808;28;103971;-67
2022/12/30 08:39:38;;;;;;;20.17;18.47;;;;;;;22.02;34.67;95946.00;6182664;28;103282;-66
2022/12/30 08:42:43;;;;;;;20.47;18.77;;;;;;;22.00;34.61;95944.69;6185732;28;103081;-67
2022/12/30 08:45:55;;;;;;;20.43;18.70;;;;;;;21.92;34.99;95932.78;6185618;28;104672;-66
2022/12/30 08:48:58;;;;;;;19.93;18.23;;;;;;;21.98;34.70;95941.50;6174680;28;104266;-68
2022/12/30 08:52:02;;;;;;;19.93;18.33;;;;;;;22.00;35.12;95939.34;6184685;28;103241;-67
2022/12/30 08:55:06;;;;;;;20.20;18.60;;;;;;;21.95;34.75;95932.22;6185363;28;103447;-66
2022/12/30 08:58:11;;;;;;;20.07;18.47;;;;;;;21.97;34.99;95940.72;6184587;28;103041;-66
2022/12/30 09:01:15;;;;;;;19.83;18.23;;;;;;;21.97;34.81;95940.72;6175073;28;103156;-66
2022/12/30 09:04:19;;;;;;;20.47;18.77;;;;;;;21.89;34.95;95932.56;6185291;28;103151;-65
2022/12/30 09:07:22;;;;;;;19.20;17.60;;;;;;;21.96;34.97;95939.13;6184846;28;103056;-66
2022/12/30 09:10:45;;;;;;;20.10;18.40;;;;;;;21.97;34.64;95942.56;6175192;28;103041;-65
2022/12/30 09:13:50;;;;;;;19.20;17.67;;;;;;;21.94;34.93;95933.28;6184171;28;103108;-66
2022/12/30 09:16:57;;;;;;;19.80;18.20;;;;;;;21.97;35.25;95930.03;6185171;28;103301;-66
2022/12/30 09:20:00;;;;;;;19.00;17.50;;;;;;;21.98;34.76;95936.16;6183561;28;103332;-67
2022/12/30 09:23:03;;;;;;;19.30;17.77;;;;;;;21.96;34.63;95931.13;6173255;28;103382;-67
2022/12/30 09:26:08;;;;;;;18.67;17.07;;;;;;;22.02;35.11;95922.03;6184682;28;103252;-67
2022/12/30 09:29:17;;;;;;;17.80;16.30;;;;;;;22.09;34.56;95929.66;6184838;28;103560;-67
2022/12/30 09:32:20;;;;;;;18.90;17.30;;;;;;;22.06;34.48;95914.25;6184918;28;103336;-67
2022/12/30 09:35:23;;;;;;;18.70;17.20;;;;;;;22.08;34.84;95912.09;6173843;28;103528;-67
2022/12/30 09:38:26;;;;;;;18.03;16.47;;;;;;;22.22;34.76;95923.66;6184476;28;103533;-67
2022/12/30 09:45:16;;;;;;;18.23;16.63;;;;;;;22.31;34.40;95913.13;6173759;28;103630;-67
2022/12/30 09:48:25;;;;;;;17.27;15.97;;;;;;;22.34;34.13;95894.69;6184198;28;103646;-67
2022/12/30 09:51:31;;;;;;;17.53;15.90;;;;;;;22.31;34.64;95881.13;6182881;28;103319;-66
2022/12/30 09:54:40;;;;;;;16.70;15.40;;;;;;;22.37;34.32;95893.34;6184674;28;103874;-67
2022/12/30 09:57:49;;;;;;;17.67;16.17;;;;;;;22.37;34.08;95894.13;6172987;28;103319;-67
2022/12/30 10:00:54;;;;;;;16.80;15.40;;;;;;;22.39;34.07;95886.66;6183965;28;103244;-67
2022/12/30 10:04:00;;;;;;;16.53;15.23;;;;;;;22.34;34.50;95884.03;6184262;28;103153;-67
2022/12/30 10:07:11;;;;;;;16.00;14.70;;;;;;;22.32;34.12;95874.72;6178434;28;103105;-67
2022/12/30 10:10:20;;;;;;;16.47;15.17;;;;;;;22.37;34.38;95875.47;6179917;28;104313;-67
2022/12/30 10:13:31;;;;;;;17.37;16.07;;;;;;;22.41;34.06;95873.03;6183665;28;103093;-67
2022/12/30 10:16:53;;;;;;;16.97;15.47;;;;;;;22.40;34.48;95868.78;6184350;28;103253;-66
2022/12/30 10:20:05;;;;;;;16.10;14.80;;;;;;;22.41;34.54;95868.47;6172641;28;103035;-66
2022/12/30 10:23:18;;;;;;;16.60;15.03;;;;;;;22.42;34.21;95866.59;6183611;28;103219;-66
2022/12/30 10:26:24;;;;;;;15.90;14.60;;;;;;;22.43;34.07;95868.19;6183821;28;103054;-67
2022/12/30 10:29:31;;;;;;;15.47;14.17;;;;;;;22.42;34.68;95864.72;6179364;28;103237;-68
2022/12/30 10:32:37;;;;;;;16.47;14.93;;;;;;;22.41;34.79;95860.47;6178066;28;103272;-69
2022/12/30 10:35:41;;;;;;;15.23;13.93;;;;;;;22.40;34.65;95842.88;6183385;28;103261;-66
2022/12/30 10:38:44;;;;;;;16.17;14.77;;;;;;;22.45;34.35;95847.34;6183855;28;103363;-67
2022/12/30 10:42:03;;;;;;;15.10;13.93;;;;;;;22.47;34.67;95850.53;6173056;28;103818;-69
2022/12/30 10:45:31;;;;;;;14.80;13.60;;;;;;;22.46;34.75;95832.16;6183296;28;103358;-67
2022/12/30 10:49:20;;;;;;;15.13;13.93;;;;;;;22.48;34.21;95829.97;6183465;28;103070;-67
2022/12/30 10:52:23;;;;;;;14.90;13.70;;;;;;;22.45;34.32;95820.69;6178566;28;103085;-67
2022/12/30 10:55:29;;;;;;;14.40;13.20;;;;;;;22.47;34.74;95820.41;6177961;28;102719;-68
2022/12/30 10:58:38;;;;;;;14.77;13.57;;;;;;;22.49;34.52;95820.91;6183413;28;103461;-67
2022/12/30 11:01:43;;;;;;;15.30;14.00;;;;;;;22.48;34.41;95816.66;6182931;28;103902;-67
2022/12/30 11:04:48;;;;;;;14.83;13.63;;;;;;;22.39;34.45;95789.84;6175888;28;103219;-68
2022/12/30 11:07:55;;;;;;;12.80;11.80;;;;;;;22.47;34.16;95797.19;6187065;28;103081;-67
2022/12/30 11:10:59;;;;;;;14.23;13.03;;;;;;;22.48;34.43;95798.75;6187935;28;105696;-67
2022/12/30 11:17:25;;;;;;;15.10;13.90;;;;;;;22.48;34.17;95787.31;6176832;28;103171;-66
2022/12/30 11:20:33;;;;;;;14.43;13.23;;;;;;;22.44;34.53;95794.31;6185609;28;103349;-66
2022/12/30 11:23:39;;;;;;;13.70;12.60;;;;;;;22.43;34.51;95796.19;6187114;28;103616;-66
2022/12/30 11:26:47;;;;;;;13.10;12.10;;;;;;;22.41;34.70;95791.13;6178219;28;103020;-67
2022/12/30 11:29:53;;;;;;;13.47;12.37;;;;;;;22.41;34.49;95787.69;6186038;28;103101;-67
2022/12/30 11:32:59;;;;;;;14.60;13.40;;;;;;;22.39;34.60;95789.84;6186726;28;104335;-67
2022/12/30 11:36:17;;;;;;;12.10;11.10;;;;;;;22.26;34.53;95777.22;6186633;28;103122;-67
2022/12/30 11:39:32;;;;;;;12.10;11.13;;;;;;;22.34;35.07;95782.69;6175587;28;103230;-67
2022/12/30 11:42:35;;;;;;;12.57;11.57;;;;;;;22.26;34.64;95769.22;6186624;28;102899;-66
2022/12/30 11:45:40;;;;;;;13.20;12.20;;;;;;;22.30;35.19;95775.56;6186799;28;103041;-66
2022/12/30 11:48:47;;;;;;;12.47;11.47;;;;;;;22.31;35.04;95787.81;6183041;28;103108;-66
2022/12/30 11:51:53;;;;;;;13.00;12.00;;;;;;;22.32;35.09;95776.06;6180271;28;103811;-66
2022/12/30 11:54:59;;;;;;;12.53;11.53;;;;;;;22.29;34.69;95771.31;6186926;28;102897;-66
2022/12/30 11:58:02;;;;;;;13.07;12.07;;;;;;;22.19;34.93;95766.94;6186099;28;104050;-65
2022/12/30 12:01:13;;;;;;;12.17;11.27;;;;;;;22.16;34.92;95762.16;6179510;28;103801;-68
2022/12/30 12:04:37;;;;;;;12.10;11.10;;;;;;;22.25;35.16;95778.31;6210304;28;103063;-66
2022/12/30 12:07:46;;;;;;;12.47;11.47;;;;;;;22.14;35.10;95766.19;6210895;28;103119;-66
2022/12/30 12:10:55;;;;;;;12.30;11.37;;;;;;;22.25;35.29;95778.31;6193166;28;102877;-68
2022/12/30 12:14:05;;;;;;;12.73;11.77;;;;;;;22.24;35.17;95776.72;6199652;28;103029;-67
2022/12/30 12:17:29;;;;;;;12.30;11.23;;;;;;;22.16;35.49;95770.16;6210457;28;103442;-67
2022/12/30 12:20:39;;;;;;;13.27;12.07;;;;;;;22.16;35.27;95780.03;6210048;28;104544;-67
2022/12/30 12:23:50;;;;;;;14.03;12.93;;;;;;;22.14;35.14;95774.19;6201119;28;103175;-67
2022/12/30 12:26:58;;;;;;;14.67;13.37;;;;;;;22.13;35.47;95781.41;6210010;28;103118;-67
2022/12/30 12:30:01;;;;;;;14.27;12.77;;;;;;;22.03;35.50;95755.69;6210462;28;102985;-68
2022/12/30 12:33:18;;;;;;;15.30;13.70;;;;;;;22.09;35.58;95772.41;6209924;28;103761;-67
2022/12/30 12:36:34;;;;;;;13.83;12.63;;;;;;;22.07;35.35;95770.03;6200342;28;103161;-67
2022/12/30 12:40:05;;;;;;;21.43;17.10;;;;;;;22.03;35.38;95766.34;6186079;28;105483;-67
2022/12/30 12:43:18;;;;;;;16.80;15.07;;;;;;;22.07;35.87;95772.69;6185313;28;103062;-68
2022/12/30 12:46:44;;;;;;;17.03;15.37;;;;;;;22.10;36.54;95777.44;6176189;28;103877;-67
2022/12/30 12:50:00;;;;;;;15.50;13.87;;;;;;;21.86;36.41;95736.75;6184606;28;103050;-68
2022/12/30 12:53:20;;;;;;;16.43;14.63;;;;;;;22.09;36.79;95775.84;6185392;28;103353;-68
2022/12/30 12:56:51;;;;;;;15.47;13.87;;;;;;;22.10;36.91;95777.44;6185535;28;102889;-68
2022/12/30 13:00:08;;;;;;;14.90;13.50;;;;;;;22.10;36.71;95782.78;6178706;28;103061;-68
2022/12/30 13:03:54;;;;;;;17.30;13.87;;;;;;;21.99;36.43;95765.31;6184394;28;103222;-67
2022/12/30 13:07:09;;;;;;;14.37;12.97;;;;;;;22.09;36.37;95767.88;6185101;28;103073;-66
2022/12/30 13:10:27;;;;;;;14.40;13.20;;;;;;;22.05;36.25;95785.50;6173799;28;103141;-66
2022/12/30 13:13:39;;;;;;;13.37;12.17;;;;;;;22.04;36.13;95789.25;6184819;28;103019;-66
2022/12/30 13:16:45;;;;;;;14.37;12.93;;;;;;;22.03;36.58;95787.69;6184871;28;103137;-66
2022/12/30 13:19:54;;;;;;;13.70;12.50;;;;;;;22.01;36.87;95789.84;6179221;28;103175;-66
2022/12/30 13:23:05;;;;;;;13.93;12.37;;;;;;;21.97;36.31;95788.00;6179910;28;106485;-66
2022/12/30 13:26:08;;;;;;;13.83;12.47;;;;;;;22.02;36.68;95796.75;6183348;28;102932;-66
2022/12/30 13:29:14;;;;;;;12.33;11.33;;;;;;;22.00;36.46;95798.88;6185338;28;103641;-65
2022/12/30 13:32:24;;;;;;;13.03;11.80;;;;;;;22.00;36.65;95798.09;6175336;28;104116;-66
2022/12/30 13:35:39;;;;;;;12.93;11.73;;;;;;;21.88;36.29;95792.41;6184981;28;103135;-66
2022/12/30 13:38:59;;;;;;;13.53;12.13;;;;;;;21.97;36.09;95802.13;6185233;28;103346;-66
2022/12/30 13:42:38;;;;;;;13.17;11.97;;;;;;;21.98;36.31;95802.91;6183555;28;103035;-66
2022/12/30 13:45:47;;;;;;;14.40;13.00;;;;;;;21.89;36.40;95789.44;6178767;28;102930;-66
2022/12/30 13:48:55;;;;;;;12.77;11.57;;;;;;;21.98;36.02;95800.25;6184072;28;103072;-65
2022/12/30 13:52:02;;;;;;;12.00;11.00;;;;;;;21.96;36.44;95794.41;6184751;28;103393;-66
2022/12/30 13:55:17;;;;;;;12.90;11.70;;;;;;;21.97;36.25;95804.00;6177200;28;103613;-67
2022/12/30 13:58:26;;;;;;;12.80;11.60;;;;;;;21.96;36.45;95808.53;6203573;28;102988;-67
2022/12/30 14:01:39;;;;;;;12.90;11.80;;;;;;;21.83;36.63;95792.44;6183658;28;103059;-67
2022/12/30 14:04:47;;;;;;;13.33;12.13;;;;;;;21.95;36.44;95808.81;6184039;28;103254;-67
2022/12/30 14:07:51;;;;;;;13.30;12.10;;;;;;;21.93;36.14;95803.78;6184709;28;103172;-66
2022/12/30 14:11:05;;;;;;;13.00;11.80;;;;;;;21.92;36.08;95807.53;6208827;28;103619;-67
2022/12/30 14:14:21;;;;;;;12.17;11.07;;;;;;;21.81;36.63;95790.03;6193973;28;103434;-69
2022/12/30 14:17:29;;;;;;;13.30;12.00;;;;;;;21.98;37.29;95803.72;6172527;28;103929;-67
2022/12/30 14:20:34;;;;;;;13.53;12.07;;;;;;;22.00;37.43;95806.88;6183585;28;103311;-67
2022/12/30 14:23:44;;;;;;;13.57;12.27;;;;;;;21.99;37.26;95810.63;6183432;28;103142;-70
2022/12/30 14:26:48;;;;;;;12.50;11.30;;;;;;;22.02;37.03;95809.28;6183470;28;103356;-68
2022/12/30 14:30:02;;;;;;;12.83;11.60;;;;;;;22.04;37.23;95802.59;6173066;28;103025;-68
2022/12/30 14:33:30;;;;;;;12.83;11.77;;;;;;;21.88;36.63;95798.53;6182671;28;102961;-67
2022/12/30 14:36:36;;;;;;;12.83;11.67;;;;;;;21.93;36.51;95809.13;6184517;28;104284;-67
2022/12/30 14:39:39;;;;;;;12.93;11.83;;;;;;;21.91;36.39;95813.94;6182661;28;104231;-68
2022/12/30 14:42:52;;;;;;;12.77;11.50;;;;;;;21.93;36.78;95811.78;6208669;28;104560;-65
2022/12/30 14:46:28;;;;;;;13.03;11.90;;;;;;;21.92;36.58;95812.84;6212346;28;103253;-66
2022/12/30 14:49:40;;;;;;;12.73;11.67;;;;;;;21.90;36.67;95814.22;6209872;28;103270;-65
2022/12/30 14:52:51;;;;;;;12.97;11.80;;;;;;;21.90;36.47;95808.91;6202930;28;103360;-64
2022/12/30 14:55:54;;;;;;;13.20;12.10;;;;;;;21.89;37.07;95807.31;6212080;28;103662;-65
2022/12/30 14:58:58;;;;;;;13.00;11.90;;;;;;;21.77;36.71;95789.03;6212472;28;103093;-65
2022/12/30 15:02:13;;;;;;;13.50;12.20;;;;;;;21.85;36.64;95799.09;6206585;28;103231;-66
2022/12/30 15:05:21;;;;;;;13.80;12.53;;;;;;;21.85;36.46;95804.44;6207141;28;103273;-65
2022/12/30 15:08:30;;;;;;;13.30;12.20;;;;;;;21.85;36.48;95807.09;6212209;28;103626;-66
2022/12/30 15:11:33;;;;;;;13.83;12.50;;;;;;;21.84;36.42;95802.81;6212218;28;103098;-66
2022/12/30 15:14:36;;;;;;;12.27;11.27;;;;;;;21.80;36.84;95805.22;6201445;28;102785;-66